Airfield :
LOGIN :

Register | Disclaimer

   EN    FR    IT 

 










Legend :    VFR   Marginal VFR   IFR   Intensive IFR   Very Intensive IFR
Visi :
Ceiling :
>= 8 km
>= 3000ft
5 to 8 km
1000 to 3000 ft
1500m to 5 km
500 to 1000 ft
800 to 1500m
200 to 500 ft
< 800m
< 200 ft
Symbols :   Thunderstorms  Fog  Heavy snow  Heavy precipitations  Wind > 20 kt
SIGMETs :     Misc.  Thunderstorms  Icing  Turbulence  Mountain Waves  Volcanic Ashes






- Airport Elevation : 56 ft
- IATA code : BZR


LFMU - Beziers / Vias

CURRENT METAR :
  • 121330Z AUTO 34013KT 7000 BKN048 BKN060 15/05 Q1007 TEMPO 32016G26KT

EXPIRED METARs :
  • 121300Z AUTO 32014KT 9999 SCT046 BKN054 14/05 Q1007 TEMPO 32016G26KT
  • 121230Z AUTO 31018KT CAVOK 15/05 Q1007 TEMPO 32016G26KT
  • 121200Z AUTO 31020KT 9999 BKN046 BKN054 15/06 Q1008 TEMPO 32016G26KT
  • 121130Z AUTO 32011KT 270V350 9999 FEW035 BKN044 OVC050 13/06 Q1009 TEMPO 32016G26KT
  • 121100Z AUTO 34009KT 9999 BKN047 BKN054 13/05 Q1010 NOSIG

TAF TAF LFMU
Valid from the 12 at 09:00 until the 13 at 09:00 UTC


120800Z 1209/1309 32015KT 9999 SCT040
TEMPO 1213/1218 32016G26KT
BECMG 1221/1223 27004KT
ATIS : +33 4 67 90 88 88



MET'MAP, your aeronautical weather chart ! - Copyright ORBIFLY December 2007 - Disclaimer

ORBIFLY MET'MAP TEAM :

Programming & Development : Alexandra Zaïnal
Concept & Development : Baudouin d'Aumeries
Co-Development & Prog : Marc-Olivier Méhu
Technical & hardware support : Manuel Goepfert

Contact : metmap@orbifly.com




SOURCES & CREDITS :

   NOAA